sensor_id;sensor_type;location;lat;lon;timestamp;P1;durP1;ratioP1;P2;durP2;ratioP2
25854;SDS011;13680;49.936;11.344;2023-04-03T00:00:59;3.65;;;1.95;;
25854;SDS011;13680;49.936;11.344;2023-04-03T00:03:25;3.88;;;2.10;;
25854;SDS011;13680;49.936;11.344;2023-04-03T00:05:50;2.33;;;1.77;;
25854;SDS011;13680;49.936;11.344;2023-04-03T00:08:16;2.47;;;1.90;;
25854;SDS011;13680;49.936;11.344;2023-04-03T00:10:41;4.22;;;2.17;;
25854;SDS011;13680;49.936;11.344;2023-04-03T00:13:07;4.25;;;1.83;;
25854;SDS011;13680;49.936;11.344;2023-04-03T00:15:33;3.45;;;1.80;;
25854;SDS011;13680;49.936;11.344;2023-04-03T00:17:59;4.10;;;1.80;;
25854;SDS011;13680;49.936;11.344;2023-04-03T00:20:25;3.97;;;1.80;;
25854;SDS011;13680;49.936;11.344;2023-04-03T00:22:50;3.47;;;1.70;;
25854;SDS011;13680;49.936;11.344;2023-04-03T00:25:16;2.92;;;1.73;;
25854;SDS011;13680;49.936;11.344;2023-04-03T00:27:41;4.57;;;1.70;;
25854;SDS011;13680;49.936;11.344;2023-04-03T00:30:08;3.60;;;1.63;;
25854;SDS011;13680;49.936;11.344;2023-04-03T00:32:37;4.47;;;2.20;;
25854;SDS011;13680;49.936;11.344;2023-04-03T00:35:03;5.07;;;1.80;;
25854;SDS011;13680;49.936;11.344;2023-04-03T00:37:28;2.97;;;1.67;;
25854;SDS011;13680;49.936;11.344;2023-04-03T00:39:54;3.35;;;2.03;;
25854;SDS011;13680;49.936;11.344;2023-04-03T00:42:19;2.85;;;1.52;;
25854;SDS011;13680;49.936;11.344;2023-04-03T00:47:11;3.88;;;1.80;;
25854;SDS011;13680;49.936;11.344;2023-04-03T00:49:38;5.82;;;1.85;;
25854;SDS011;13680;49.936;11.344;2023-04-03T00:52:05;3.17;;;1.70;;
25854;SDS011;13680;49.936;11.344;2023-04-03T00:54:34;3.90;;;2.00;;
25854;SDS011;13680;49.936;11.344;2023-04-03T00:57:01;5.75;;;1.80;;
25854;SDS011;13680;49.936;11.344;2023-04-03T00:59:27;4.30;;;1.88;;
25854;SDS011;13680;49.936;11.344;2023-04-03T01:01:56;7.25;;;2.45;;
25854;SDS011;13680;49.936;11.344;2023-04-03T01:04:32;4.90;;;2.38;;
25854;SDS011;13680;49.936;11.344;2023-04-03T01:09:40;4.60;;;2.08;;
25854;SDS011;13680;49.936;11.344;2023-04-03T01:14:51;6.18;;;2.20;;
25854;SDS011;13680;49.936;11.344;2023-04-03T01:25:23;4.60;;;2.22;;
25854;SDS011;13680;49.936;11.344;2023-04-03T01:27:48;5.93;;;2.50;;
25854;SDS011;13680;49.936;11.344;2023-04-03T01:30:14;5.72;;;2.50;;
25854;SDS011;13680;49.936;11.344;2023-04-03T01:32:42;6.30;;;2.70;;
25854;SDS011;13680;49.936;11.344;2023-04-03T01:35:08;5.20;;;2.85;;
25854;SDS011;13680;49.936;11.344;2023-04-03T01:37:34;8.13;;;2.80;;
25854;SDS011;13680;49.936;11.344;2023-04-03T01:40:00;9.52;;;3.03;;
25854;SDS011;13680;49.936;11.344;2023-04-03T01:42:25;7.72;;;2.92;;
25854;SDS011;13680;49.936;11.344;2023-04-03T01:44:50;6.38;;;2.88;;
25854;SDS011;13680;49.936;11.344;2023-04-03T01:47:16;6.18;;;3.20;;
25854;SDS011;13680;49.936;11.344;2023-04-03T01:49:41;6.75;;;3.00;;
25854;SDS011;13680;49.936;11.344;2023-04-03T01:52:06;10.35;;;3.45;;
25854;SDS011;13680;49.936;11.344;2023-04-03T01:54:32;5.53;;;2.92;;
25854;SDS011;13680;49.936;11.344;2023-04-03T01:56:57;5.80;;;2.60;;
25854;SDS011;13680;49.936;11.344;2023-04-03T01:59:23;6.88;;;3.13;;
25854;SDS011;13680;49.936;11.344;2023-04-03T02:01:48;6.72;;;2.75;;
25854;SDS011;13680;49.936;11.344;2023-04-03T02:04:13;6.13;;;3.05;;
25854;SDS011;13680;49.936;11.344;2023-04-03T02:06:39;7.30;;;3.05;;
25854;SDS011;13680;49.936;11.344;2023-04-03T02:09:04;5.07;;;2.83;;
25854;SDS011;13680;49.936;11.344;2023-04-03T02:11:30;6.57;;;2.80;;
25854;SDS011;13680;49.936;11.344;2023-04-03T02:13:56;10.48;;;3.20;;
25854;SDS011;13680;49.936;11.344;2023-04-03T02:16:21;9.10;;;3.28;;
25854;SDS011;13680;49.936;11.344;2023-04-03T02:18:46;6.32;;;3.17;;
25854;SDS011;13680;49.936;11.344;2023-04-03T02:21:12;7.15;;;3.30;;
25854;SDS011;13680;49.936;11.344;2023-04-03T02:23:37;8.82;;;3.38;;
25854;SDS011;13680;49.936;11.344;2023-04-03T02:26:03;7.40;;;3.10;;
25854;SDS011;13680;49.936;11.344;2023-04-03T02:28:30;7.90;;;3.15;;
25854;SDS011;13680;49.936;11.344;2023-04-03T02:30:56;10.45;;;3.40;;
25854;SDS011;13680;49.936;11.344;2023-04-03T02:33:21;5.68;;;2.92;;
25854;SDS011;13680;49.936;11.344;2023-04-03T02:35:46;6.72;;;3.22;;
25854;SDS011;13680;49.936;11.344;2023-04-03T02:38:18;7.50;;;3.45;;
25854;SDS011;13680;49.936;11.344;2023-04-03T02:40:43;8.63;;;3.40;;
25854;SDS011;13680;49.936;11.344;2023-04-03T02:43:09;6.80;;;3.20;;
25854;SDS011;13680;49.936;11.344;2023-04-03T02:45:35;9.88;;;3.05;;
25854;SDS011;13680;49.936;11.344;2023-04-03T02:48:00;7.40;;;3.42;;
25854;SDS011;13680;49.936;11.344;2023-04-03T02:50:26;6.80;;;3.45;;
25854;SDS011;13680;49.936;11.344;2023-04-03T02:52:51;6.95;;;2.90;;
25854;SDS011;13680;49.936;11.344;2023-04-03T02:55:16;6.82;;;3.42;;
25854;SDS011;13680;49.936;11.344;2023-04-03T02:57:42;12.93;;;3.03;;
25854;SDS011;13680;49.936;11.344;2023-04-03T03:00:07;5.07;;;2.92;;
25854;SDS011;13680;49.936;11.344;2023-04-03T03:02:33;10.15;;;2.83;;
25854;SDS011;13680;49.936;11.344;2023-04-03T03:04:59;5.93;;;2.42;;
25854;SDS011;13680;49.936;11.344;2023-04-03T03:07:24;7.60;;;2.90;;
25854;SDS011;13680;49.936;11.344;2023-04-03T03:09:51;9.68;;;2.83;;
25854;SDS011;13680;49.936;11.344;2023-04-03T03:12:16;6.32;;;2.83;;
25854;SDS011;13680;49.936;11.344;2023-04-03T03:14:46;7.07;;;2.75;;
25854;SDS011;13680;49.936;11.344;2023-04-03T03:17:11;7.40;;;2.45;;
25854;SDS011;13680;49.936;11.344;2023-04-03T03:19:36;9.50;;;3.05;;
25854;SDS011;13680;49.936;11.344;2023-04-03T03:22:02;5.63;;;2.85;;
25854;SDS011;13680;49.936;11.344;2023-04-03T03:24:27;6.35;;;2.55;;
25854;SDS011;13680;49.936;11.344;2023-04-03T03:26:52;4.07;;;2.47;;
25854;SDS011;13680;49.936;11.344;2023-04-03T03:29:18;6.82;;;2.53;;
25854;SDS011;13680;49.936;11.344;2023-04-03T03:31:43;6.80;;;2.20;;
25854;SDS011;13680;49.936;11.344;2023-04-03T03:34:08;7.13;;;2.53;;
25854;SDS011;13680;49.936;11.344;2023-04-03T03:36:34;6.63;;;2.75;;
25854;SDS011;13680;49.936;11.344;2023-04-03T03:38:59;10.40;;;2.80;;
25854;SDS011;13680;49.936;11.344;2023-04-03T03:41:24;4.72;;;2.20;;
25854;SDS011;13680;49.936;11.344;2023-04-03T03:43:50;5.85;;;2.20;;
25854;SDS011;13680;49.936;11.344;2023-04-03T03:46:15;9.10;;;2.88;;
25854;SDS011;13680;49.936;11.344;2023-04-03T03:48:41;5.90;;;2.47;;
25854;SDS011;13680;49.936;11.344;2023-04-03T03:51:06;7.20;;;3.17;;
25854;SDS011;13680;49.936;11.344;2023-04-03T03:53:32;8.85;;;2.58;;
25854;SDS011;13680;49.936;11.344;2023-04-03T03:55:57;9.07;;;2.70;;
25854;SDS011;13680;49.936;11.344;2023-04-03T03:58:22;6.55;;;2.70;;
25854;SDS011;13680;49.936;11.344;2023-04-03T04:00:48;5.88;;;2.40;;
25854;SDS011;13680;49.936;11.344;2023-04-03T04:03:13;8.60;;;2.65;;
25854;SDS011;13680;49.936;11.344;2023-04-03T04:05:39;12.77;;;2.65;;
25854;SDS011;13680;49.936;11.344;2023-04-03T04:08:04;5.25;;;2.30;;
25854;SDS011;13680;49.936;11.344;2023-04-03T04:10:30;5.88;;;2.65;;
25854;SDS011;13680;49.936;11.344;2023-04-03T04:12:55;6.57;;;2.40;;
25854;SDS011;13680;49.936;11.344;2023-04-03T04:15:20;8.98;;;2.80;;
25854;SDS011;13680;49.936;11.344;2023-04-03T04:17:46;7.57;;;2.88;;
25854;SDS011;13680;49.936;11.344;2023-04-03T04:20:12;15.38;;;3.20;;
25854;SDS011;13680;49.936;11.344;2023-04-03T04:22:37;8.63;;;2.88;;
25854;SDS011;13680;49.936;11.344;2023-04-03T04:25:04;8.73;;;2.53;;
25854;SDS011;13680;49.936;11.344;2023-04-03T04:27:29;6.43;;;2.53;;
25854;SDS011;13680;49.936;11.344;2023-04-03T04:29:54;8.48;;;2.90;;
25854;SDS011;13680;49.936;11.344;2023-04-03T04:32:20;7.53;;;2.88;;
25854;SDS011;13680;49.936;11.344;2023-04-03T04:34:45;11.18;;;2.90;;
25854;SDS011;13680;49.936;11.344;2023-04-03T04:37:11;8.70;;;2.60;;
25854;SDS011;13680;49.936;11.344;2023-04-03T04:39:36;7.68;;;2.60;;
25854;SDS011;13680;49.936;11.344;2023-04-03T04:42:01;6.25;;;2.30;;
25854;SDS011;13680;49.936;11.344;2023-04-03T04:44:27;6.53;;;3.00;;
25854;SDS011;13680;49.936;11.344;2023-04-03T04:46:52;9.40;;;3.05;;
25854;SDS011;13680;49.936;11.344;2023-04-03T04:49:18;4.72;;;2.50;;
25854;SDS011;13680;49.936;11.344;2023-04-03T04:51:43;5.93;;;3.42;;
25854;SDS011;13680;49.936;11.344;2023-04-03T04:54:09;12.20;;;3.70;;
25854;SDS011;13680;49.936;11.344;2023-04-03T04:56:34;9.20;;;2.63;;
25854;SDS011;13680;49.936;11.344;2023-04-03T04:59:00;10.52;;;3.00;;
25854;SDS011;13680;49.936;11.344;2023-04-03T05:01:26;5.00;;;3.00;;
25854;SDS011;13680;49.936;11.344;2023-04-03T05:03:51;15.80;;;3.42;;
25854;SDS011;13680;49.936;11.344;2023-04-03T05:06:16;10.38;;;2.97;;
25854;SDS011;13680;49.936;11.344;2023-04-03T05:08:42;9.23;;;3.10;;
25854;SDS011;13680;49.936;11.344;2023-04-03T05:11:07;5.53;;;2.70;;
25854;SDS011;13680;49.936;11.344;2023-04-03T05:13:32;5.72;;;2.88;;
25854;SDS011;13680;49.936;11.344;2023-04-03T05:15:58;7.15;;;2.78;;
25854;SDS011;13680;49.936;11.344;2023-04-03T05:18:23;6.95;;;3.38;;
25854;SDS011;13680;49.936;11.344;2023-04-03T05:20:49;6.88;;;3.40;;
25854;SDS011;13680;49.936;11.344;2023-04-03T05:23:15;14.10;;;3.63;;
25854;SDS011;13680;49.936;11.344;2023-04-03T05:25:41;11.73;;;3.75;;
25854;SDS011;13680;49.936;11.344;2023-04-03T05:28:06;10.23;;;3.90;;
25854;SDS011;13680;49.936;11.344;2023-04-03T05:30:32;11.00;;;4.00;;
25854;SDS011;13680;49.936;11.344;2023-04-03T05:32:58;9.80;;;4.43;;
25854;SDS011;13680;49.936;11.344;2023-04-03T05:35:24;12.48;;;4.68;;
25854;SDS011;13680;49.936;11.344;2023-04-03T05:37:50;8.55;;;4.60;;
25854;SDS011;13680;49.936;11.344;2023-04-03T05:40:15;10.32;;;4.50;;
25854;SDS011;13680;49.936;11.344;2023-04-03T05:42:41;7.50;;;4.20;;
25854;SDS011;13680;49.936;11.344;2023-04-03T05:45:06;12.25;;;4.45;;
25854;SDS011;13680;49.936;11.344;2023-04-03T05:47:31;8.02;;;4.50;;
25854;SDS011;13680;49.936;11.344;2023-04-03T05:49:57;9.10;;;4.60;;
25854;SDS011;13680;49.936;11.344;2023-04-03T05:54:50;8.55;;;5.00;;
25854;SDS011;13680;49.936;11.344;2023-04-03T05:57:16;14.07;;;4.57;;
25854;SDS011;13680;49.936;11.344;2023-04-03T05:59:42;8.68;;;5.20;;
25854;SDS011;13680;49.936;11.344;2023-04-03T06:02:10;13.25;;;5.07;;
25854;SDS011;13680;49.936;11.344;2023-04-03T06:04:37;13.23;;;6.10;;
25854;SDS011;13680;49.936;11.344;2023-04-03T06:07:03;9.27;;;4.90;;
25854;SDS011;13680;49.936;11.344;2023-04-03T06:09:28;8.32;;;4.30;;
25854;SDS011;13680;49.936;11.344;2023-04-03T06:11:54;12.63;;;4.53;;
25854;SDS011;13680;49.936;11.344;2023-04-03T06:14:19;10.40;;;4.28;;
25854;SDS011;13680;49.936;11.344;2023-04-03T06:16:45;11.35;;;4.53;;
25854;SDS011;13680;49.936;11.344;2023-04-03T06:19:11;8.85;;;4.40;;
25854;SDS011;13680;49.936;11.344;2023-04-03T06:21:37;8.13;;;4.25;;
25854;SDS011;13680;49.936;11.344;2023-04-03T06:24:03;8.50;;;4.28;;
25854;SDS011;13680;49.936;11.344;2023-04-03T06:26:29;12.10;;;4.40;;
25854;SDS011;13680;49.936;11.344;2023-04-03T06:28:55;9.25;;;4.75;;
25854;SDS011;13680;49.936;11.344;2023-04-03T06:31:21;15.50;;;4.50;;
25854;SDS011;13680;49.936;11.344;2023-04-03T06:33:46;7.30;;;4.38;;
25854;SDS011;13680;49.936;11.344;2023-04-03T06:36:12;7.47;;;4.00;;
25854;SDS011;13680;49.936;11.344;2023-04-03T06:38:37;11.55;;;4.75;;
25854;SDS011;13680;49.936;11.344;2023-04-03T06:41:02;12.15;;;4.38;;
25854;SDS011;13680;49.936;11.344;2023-04-03T06:43:28;9.70;;;4.03;;
25854;SDS011;13680;49.936;11.344;2023-04-03T06:45:53;10.98;;;4.45;;
25854;SDS011;13680;49.936;11.344;2023-04-03T06:48:19;10.50;;;5.18;;
25854;SDS011;13680;49.936;11.344;2023-04-03T06:50:44;6.68;;;4.13;;
25854;SDS011;13680;49.936;11.344;2023-04-03T06:53:10;9.40;;;4.22;;
25854;SDS011;13680;49.936;11.344;2023-04-03T06:55:35;10.35;;;4.40;;
25854;SDS011;13680;49.936;11.344;2023-04-03T06:58:02;17.33;;;7.35;;
25854;SDS011;13680;49.936;11.344;2023-04-03T07:00:28;9.30;;;3.97;;
25854;SDS011;13680;49.936;11.344;2023-04-03T07:02:54;6.88;;;3.92;;
25854;SDS011;13680;49.936;11.344;2023-04-03T07:05:21;11.02;;;4.60;;
25854;SDS011;13680;49.936;11.344;2023-04-03T07:07:47;8.27;;;4.10;;
25854;SDS011;13680;49.936;11.344;2023-04-03T07:10:12;10.80;;;4.20;;
25854;SDS011;13680;49.936;11.344;2023-04-03T07:12:37;7.03;;;4.15;;
25854;SDS011;13680;49.936;11.344;2023-04-03T07:15:04;14.10;;;4.38;;
25854;SDS011;13680;49.936;11.344;2023-04-03T07:17:30;10.77;;;3.30;;
25854;SDS011;13680;49.936;11.344;2023-04-03T07:19:56;9.63;;;4.50;;
25854;SDS011;13680;49.936;11.344;2023-04-03T07:22:21;5.82;;;3.58;;
25854;SDS011;13680;49.936;11.344;2023-04-03T07:24:46;9.05;;;3.92;;
25854;SDS011;13680;49.936;11.344;2023-04-03T07:27:12;9.02;;;3.80;;
25854;SDS011;13680;49.936;11.344;2023-04-03T07:29:37;11.68;;;3.70;;
25854;SDS011;13680;49.936;11.344;2023-04-03T07:32:04;11.73;;;4.93;;
25854;SDS011;13680;49.936;11.344;2023-04-03T07:34:30;9.63;;;4.00;;
25854;SDS011;13680;49.936;11.344;2023-04-03T07:36:56;9.50;;;3.90;;
25854;SDS011;13680;49.936;11.344;2023-04-03T07:39:21;8.60;;;4.20;;
25854;SDS011;13680;49.936;11.344;2023-04-03T07:41:47;8.15;;;4.38;;
25854;SDS011;13680;49.936;11.344;2023-04-03T07:44:12;7.93;;;3.90;;
25854;SDS011;13680;49.936;11.344;2023-04-03T07:46:37;8.57;;;3.92;;
25854;SDS011;13680;49.936;11.344;2023-04-03T07:49:03;6.43;;;4.00;;
25854;SDS011;13680;49.936;11.344;2023-04-03T07:51:29;9.88;;;3.92;;
25854;SDS011;13680;49.936;11.344;2023-04-03T07:53:55;8.20;;;4.07;;
25854;SDS011;13680;49.936;11.344;2023-04-03T07:56:20;9.32;;;4.03;;
25854;SDS011;13680;49.936;11.344;2023-04-03T07:58:45;7.78;;;4.18;;
25854;SDS011;13680;49.936;11.344;2023-04-03T08:01:11;8.65;;;4.07;;
25854;SDS011;13680;49.936;11.344;2023-04-03T08:03:36;14.05;;;4.40;;
25854;SDS011;13680;49.936;11.344;2023-04-03T08:06:03;9.68;;;3.78;;
25854;SDS011;13680;49.936;11.344;2023-04-03T08:08:30;6.25;;;3.78;;
25854;SDS011;13680;49.936;11.344;2023-04-03T08:10:57;8.30;;;3.50;;
25854;SDS011;13680;49.936;11.344;2023-04-03T08:13:23;6.65;;;3.75;;
25854;SDS011;13680;49.936;11.344;2023-04-03T08:15:49;9.55;;;3.85;;
25854;SDS011;13680;49.936;11.344;2023-04-03T08:18:15;9.70;;;3.60;;
25854;SDS011;13680;49.936;11.344;2023-04-03T08:20:41;6.22;;;3.22;;
25854;SDS011;13680;49.936;11.344;2023-04-03T08:23:07;7.30;;;3.25;;
25854;SDS011;13680;49.936;11.344;2023-04-03T08:25:34;8.00;;;2.90;;
25854;SDS011;13680;49.936;11.344;2023-04-03T08:28:03;7.90;;;3.40;;
25854;SDS011;13680;49.936;11.344;2023-04-03T08:30:29;5.03;;;2.55;;
25854;SDS011;13680;49.936;11.344;2023-04-03T08:32:54;4.57;;;2.60;;
25854;SDS011;13680;49.936;11.344;2023-04-03T08:35:20;5.55;;;2.67;;
25854;SDS011;13680;49.936;11.344;2023-04-03T08:37:45;9.45;;;3.17;;
25854;SDS011;13680;49.936;11.344;2023-04-03T08:40:15;5.65;;;3.15;;
25854;SDS011;13680;49.936;11.344;2023-04-03T08:42:53;7.45;;;2.80;;
25854;SDS011;13680;49.936;11.344;2023-04-03T08:45:53;4.32;;;2.15;;
25854;SDS011;13680;49.936;11.344;2023-04-03T08:51:03;6.45;;;2.90;;
25854;SDS011;13680;49.936;11.344;2023-04-03T08:56:06;7.25;;;2.95;;
25854;SDS011;13680;49.936;11.344;2023-04-03T08:58:56;5.03;;;2.78;;
25854;SDS011;13680;49.936;11.344;2023-04-03T09:01:34;3.78;;;2.42;;
25854;SDS011;13680;49.936;11.344;2023-04-03T09:04:01;5.30;;;2.42;;
25854;SDS011;13680;49.936;11.344;2023-04-03T09:06:29;11.27;;;4.10;;
25854;SDS011;13680;49.936;11.344;2023-04-03T09:14:24;5.72;;;2.53;;
25854;SDS011;13680;49.936;11.344;2023-04-03T09:24:38;7.15;;;1.90;;
25854;SDS011;13680;49.936;11.344;2023-04-03T09:27:06;3.10;;;1.52;;
25854;SDS011;13680;49.936;11.344;2023-04-03T09:29:35;3.10;;;1.63;;
25854;SDS011;13680;49.936;11.344;2023-04-03T09:32:12;4.53;;;1.65;;
25854;SDS011;13680;49.936;11.344;2023-04-03T09:34:45;3.03;;;1.67;;
25854;SDS011;13680;49.936;11.344;2023-04-03T09:37:33;4.07;;;1.70;;
25854;SDS011;13680;49.936;11.344;2023-04-03T09:40:27;5.05;;;1.80;;
25854;SDS011;13680;49.936;11.344;2023-04-03T09:42:53;4.20;;;1.58;;
25854;SDS011;13680;49.936;11.344;2023-04-03T09:45:38;3.50;;;1.40;;
25854;SDS011;13680;49.936;11.344;2023-04-03T09:48:08;3.35;;;1.67;;
25854;SDS011;13680;49.936;11.344;2023-04-03T09:53:26;3.10;;;1.53;;
25854;SDS011;13680;49.936;11.344;2023-04-03T09:56:22;2.30;;;1.30;;
25854;SDS011;13680;49.936;11.344;2023-04-03T09:59:14;3.35;;;1.60;;
25854;SDS011;13680;49.936;11.344;2023-04-03T10:01:42;2.40;;;1.55;;
25854;SDS011;13680;49.936;11.344;2023-04-03T10:04:15;2.92;;;1.30;;
25854;SDS011;13680;49.936;11.344;2023-04-03T10:06:43;4.35;;;1.73;;
25854;SDS011;13680;49.936;11.344;2023-04-03T10:09:18;5.53;;;1.95;;
25854;SDS011;13680;49.936;11.344;2023-04-03T10:12:08;2.65;;;1.75;;
25854;SDS011;13680;49.936;11.344;2023-04-03T10:14:54;2.60;;;1.60;;
25854;SDS011;13680;49.936;11.344;2023-04-03T10:20:07;3.92;;;1.95;;
25854;SDS011;13680;49.936;11.344;2023-04-03T10:25:25;3.35;;;1.67;;
25854;SDS011;13680;49.936;11.344;2023-04-03T10:39:00;4.72;;;1.80;;
25854;SDS011;13680;49.936;11.344;2023-04-03T10:44:32;7.18;;;1.88;;
25854;SDS011;13680;49.936;11.344;2023-04-03T10:47:16;3.80;;;1.73;;
25854;SDS011;13680;49.936;11.344;2023-04-03T10:50:12;4.78;;;1.80;;
25854;SDS011;13680;49.936;11.344;2023-04-03T10:56:10;4.22;;;2.08;;
25854;SDS011;13680;49.936;11.344;2023-04-03T10:58:45;3.42;;;1.90;;
25854;SDS011;13680;49.936;11.344;2023-04-03T11:01:21;5.53;;;1.70;;
25854;SDS011;13680;49.936;11.344;2023-04-03T11:03:54;4.05;;;1.70;;
25854;SDS011;13680;49.936;11.344;2023-04-03T11:06:23;3.95;;;1.60;;
25854;SDS011;13680;49.936;11.344;2023-04-03T11:09:02;2.25;;;1.35;;
25854;SDS011;13680;49.936;11.344;2023-04-03T11:11:33;4.45;;;2.10;;
25854;SDS011;13680;49.936;11.344;2023-04-03T11:14:01;5.57;;;1.55;;
25854;SDS011;13680;49.936;11.344;2023-04-03T11:16:32;6.15;;;1.92;;
25854;SDS011;13680;49.936;11.344;2023-04-03T11:19:11;4.70;;;1.83;;
25854;SDS011;13680;49.936;11.344;2023-04-03T11:21:48;3.92;;;1.92;;
25854;SDS011;13680;49.936;11.344;2023-04-03T11:26:49;5.80;;;1.65;;
25854;SDS011;13680;49.936;11.344;2023-04-03T11:29:18;2.78;;;1.58;;
25854;SDS011;13680;49.936;11.344;2023-04-03T11:34:52;2.97;;;1.70;;
25854;SDS011;13680;49.936;11.344;2023-04-03T11:43:17;5.43;;;1.60;;
25854;SDS011;13680;49.936;11.344;2023-04-03T11:50:44;4.80;;;2.20;;
25854;SDS011;13680;49.936;11.344;2023-04-03T11:58:16;4.53;;;1.55;;
25854;SDS011;13680;49.936;11.344;2023-04-03T12:05:53;3.72;;;1.65;;
25854;SDS011;13680;49.936;11.344;2023-04-03T12:08:26;4.18;;;2.00;;
25854;SDS011;13680;49.936;11.344;2023-04-03T12:14:20;3.72;;;1.45;;
25854;SDS011;13680;49.936;11.344;2023-04-03T12:16:21;3.15;;;1.60;;
25854;SDS011;13680;49.936;11.344;2023-04-03T12:24:05;3.63;;;1.60;;
25854;SDS011;13680;49.936;11.344;2023-04-03T12:42:56;2.40;;;1.30;;
25854;SDS011;13680;49.936;11.344;2023-04-03T12:48:14;3.58;;;1.70;;
25854;SDS011;13680;49.936;11.344;2023-04-03T12:50:41;7.43;;;1.45;;
25854;SDS011;13680;49.936;11.344;2023-04-03T12:53:14;5.22;;;1.77;;
25854;SDS011;13680;49.936;11.344;2023-04-03T12:55:47;6.78;;;1.67;;
25854;SDS011;13680;49.936;11.344;2023-04-03T12:58:22;3.35;;;1.60;;
25854;SDS011;13680;49.936;11.344;2023-04-03T13:00:59;6.70;;;2.15;;
25854;SDS011;13680;49.936;11.344;2023-04-03T13:03:27;6.03;;;2.83;;
25854;SDS011;13680;49.936;11.344;2023-04-03T13:05:57;7.03;;;3.40;;
25854;SDS011;13680;49.936;11.344;2023-04-03T13:08:25;15.95;;;8.55;;
25854;SDS011;13680;49.936;11.344;2023-04-03T13:10:53;5.32;;;3.17;;
25854;SDS011;13680;49.936;11.344;2023-04-03T13:13:22;2.58;;;1.50;;
25854;SDS011;13680;49.936;11.344;2023-04-03T13:15:48;3.25;;;1.52;;
25854;SDS011;13680;49.936;11.344;2023-04-03T13:18:21;6.00;;;2.42;;
25854;SDS011;13680;49.936;11.344;2023-04-03T13:20:48;3.10;;;1.70;;
25854;SDS011;13680;49.936;11.344;2023-04-03T13:23:14;3.45;;;1.80;;
25854;SDS011;13680;49.936;11.344;2023-04-03T13:25:43;5.47;;;1.52;;
25854;SDS011;13680;49.936;11.344;2023-04-03T13:28:14;4.50;;;1.38;;
25854;SDS011;13680;49.936;11.344;2023-04-03T13:36:18;3.40;;;1.40;;
25854;SDS011;13680;49.936;11.344;2023-04-03T13:38:46;3.95;;;1.60;;
25854;SDS011;13680;49.936;11.344;2023-04-03T13:41:33;3.72;;;1.50;;
25854;SDS011;13680;49.936;11.344;2023-04-03T13:46:49;5.38;;;1.50;;
25854;SDS011;13680;49.936;11.344;2023-04-03T13:51:56;3.97;;;1.90;;
25854;SDS011;13680;49.936;11.344;2023-04-03T13:54:23;2.40;;;1.33;;
25854;SDS011;13680;49.936;11.344;2023-04-03T13:57:00;4.22;;;1.50;;
25854;SDS011;13680;49.936;11.344;2023-04-03T13:59:29;3.67;;;1.67;;
25854;SDS011;13680;49.936;11.344;2023-04-03T14:04:31;3.85;;;1.23;;
25854;SDS011;13680;49.936;11.344;2023-04-03T14:07:09;2.95;;;1.35;;
25854;SDS011;13680;49.936;11.344;2023-04-03T14:09:37;4.22;;;1.38;;
25854;SDS011;13680;49.936;11.344;2023-04-03T14:12:07;2.83;;;1.70;;
25854;SDS011;13680;49.936;11.344;2023-04-03T14:14:37;2.33;;;1.00;;
25854;SDS011;13680;49.936;11.344;2023-04-03T14:17:15;6.30;;;1.58;;
25854;SDS011;13680;49.936;11.344;2023-04-03T14:19:43;3.95;;;1.50;;
25854;SDS011;13680;49.936;11.344;2023-04-03T14:22:16;3.25;;;1.00;;
25854;SDS011;13680;49.936;11.344;2023-04-03T14:24:46;7.95;;;1.40;;
25854;SDS011;13680;49.936;11.344;2023-04-03T14:27:17;3.80;;;1.58;;
25854;SDS011;13680;49.936;11.344;2023-04-03T14:30:05;4.88;;;1.80;;
25854;SDS011;13680;49.936;11.344;2023-04-03T14:32:34;3.33;;;1.60;;
25854;SDS011;13680;49.936;11.344;2023-04-03T14:35:00;3.30;;;1.30;;
25854;SDS011;13680;49.936;11.344;2023-04-03T14:37:28;5.53;;;1.92;;
25854;SDS011;13680;49.936;11.344;2023-04-03T14:39:55;3.05;;;1.50;;
25854;SDS011;13680;49.936;11.344;2023-04-03T14:42:23;2.47;;;1.58;;
25854;SDS011;13680;49.936;11.344;2023-04-03T14:44:52;5.93;;;1.52;;
25854;SDS011;13680;49.936;11.344;2023-04-03T14:47:23;2.95;;;1.63;;
25854;SDS011;13680;49.936;11.344;2023-04-03T14:49:51;6.57;;;1.60;;
25854;SDS011;13680;49.936;11.344;2023-04-03T14:52:19;6.72;;;1.52;;
25854;SDS011;13680;49.936;11.344;2023-04-03T14:54:51;5.90;;;1.60;;
25854;SDS011;13680;49.936;11.344;2023-04-03T14:57:17;4.20;;;1.27;;
25854;SDS011;13680;49.936;11.344;2023-04-03T14:59:44;3.22;;;1.50;;
25854;SDS011;13680;49.936;11.344;2023-04-03T15:02:52;2.60;;;1.30;;
25854;SDS011;13680;49.936;11.344;2023-04-03T15:05:00;2.60;;;1.10;;
25854;SDS011;13680;49.936;11.344;2023-04-03T15:07:29;2.75;;;1.17;;
25854;SDS011;13680;49.936;11.344;2023-04-03T15:09:58;4.00;;;1.23;;
25854;SDS011;13680;49.936;11.344;2023-04-03T15:12:28;4.28;;;1.23;;
25854;SDS011;13680;49.936;11.344;2023-04-03T15:14:53;4.00;;;1.38;;
25854;SDS011;13680;49.936;11.344;2023-04-03T15:17:19;1.83;;;1.00;;
25854;SDS011;13680;49.936;11.344;2023-04-03T15:19:47;2.75;;;1.25;;
25854;SDS011;13680;49.936;11.344;2023-04-03T15:22:16;2.15;;;1.10;;
25854;SDS011;13680;49.936;11.344;2023-04-03T15:24:43;5.03;;;1.88;;
25854;SDS011;13680;49.936;11.344;2023-04-03T15:27:10;3.70;;;1.20;;
25854;SDS011;13680;49.936;11.344;2023-04-03T15:29:37;3.28;;;1.00;;
25854;SDS011;13680;49.936;11.344;2023-04-03T15:32:04;5.28;;;1.20;;
25854;SDS011;13680;49.936;11.344;2023-04-03T15:34:30;4.60;;;1.15;;
25854;SDS011;13680;49.936;11.344;2023-04-03T15:36:56;2.03;;;1.05;;
25854;SDS011;13680;49.936;11.344;2023-04-03T15:39:21;3.80;;;1.17;;
25854;SDS011;13680;49.936;11.344;2023-04-03T15:41:48;4.25;;;1.63;;
25854;SDS011;13680;49.936;11.344;2023-04-03T15:44:13;1.60;;;1.00;;
25854;SDS011;13680;49.936;11.344;2023-04-03T15:46:42;4.07;;;1.42;;
25854;SDS011;13680;49.936;11.344;2023-04-03T15:49:08;3.25;;;1.23;;
25854;SDS011;13680;49.936;11.344;2023-04-03T15:51:33;2.70;;;1.40;;
25854;SDS011;13680;49.936;11.344;2023-04-03T15:53:59;3.47;;;1.83;;
25854;SDS011;13680;49.936;11.344;2023-04-03T15:56:24;5.55;;;1.77;;
25854;SDS011;13680;49.936;11.344;2023-04-03T15:58:50;3.97;;;1.52;;
25854;SDS011;13680;49.936;11.344;2023-04-03T16:01:15;5.60;;;1.10;;
25854;SDS011;13680;49.936;11.344;2023-04-03T16:03:40;3.97;;;1.10;;
25854;SDS011;13680;49.936;11.344;2023-04-03T16:06:16;2.42;;;1.35;;
25854;SDS011;13680;49.936;11.344;2023-04-03T16:08:43;2.65;;;1.20;;
25854;SDS011;13680;49.936;11.344;2023-04-03T16:11:09;3.95;;;1.17;;
25854;SDS011;13680;49.936;11.344;2023-04-03T16:13:35;2.35;;;1.15;;
25854;SDS011;13680;49.936;11.344;2023-04-03T16:16:01;3.00;;;1.20;;
25854;SDS011;13680;49.936;11.344;2023-04-03T16:18:27;2.95;;;1.10;;
25854;SDS011;13680;49.936;11.344;2023-04-03T16:20:53;3.53;;;1.17;;
25854;SDS011;13680;49.936;11.344;2023-04-03T16:23:19;3.03;;;1.20;;
25854;SDS011;13680;49.936;11.344;2023-04-03T16:25:45;3.45;;;1.45;;
25854;SDS011;13680;49.936;11.344;2023-04-03T16:28:14;6.13;;;1.67;;
25854;SDS011;13680;49.936;11.344;2023-04-03T16:30:40;3.05;;;1.58;;
25854;SDS011;13680;49.936;11.344;2023-04-03T16:33:06;2.85;;;1.45;;
25854;SDS011;13680;49.936;11.344;2023-04-03T16:35:32;4.05;;;1.45;;
25854;SDS011;13680;49.936;11.344;2023-04-03T16:37:57;5.43;;;1.45;;
25854;SDS011;13680;49.936;11.344;2023-04-03T16:40:23;3.55;;;1.20;;
25854;SDS011;13680;49.936;11.344;2023-04-03T16:42:48;4.68;;;1.30;;
25854;SDS011;13680;49.936;11.344;2023-04-03T16:45:13;3.40;;;1.20;;
25854;SDS011;13680;49.936;11.344;2023-04-03T16:47:39;2.95;;;1.38;;